sensor_id;sensor_type;location;lat;lon;timestamp;P1;durP1;ratioP1;P2;durP2;ratioP2
36839;SDS011;24406;51.640;9.566;2024-02-23T00:03:40;2.15;;;0.80;;
36839;SDS011;24406;51.640;9.566;2024-02-23T00:08:44;2.22;;;0.77;;
36839;SDS011;24406;51.640;9.566;2024-02-23T00:13:46;1.90;;;0.80;;
36839;SDS011;24406;51.640;9.566;2024-02-23T00:18:49;1.58;;;1.00;;
36839;SDS011;24406;51.640;9.566;2024-02-23T00:23:53;1.55;;;0.60;;
36839;SDS011;24406;51.640;9.566;2024-02-23T00:28:57;1.38;;;0.73;;
36839;SDS011;24406;51.640;9.566;2024-02-23T00:34:04;1.85;;;0.80;;
36839;SDS011;24406;51.640;9.566;2024-02-23T00:39:10;1.90;;;0.73;;
36839;SDS011;24406;51.640;9.566;2024-02-23T00:44:12;1.40;;;0.60;;
36839;SDS011;24406;51.640;9.566;2024-02-23T00:49:18;4.70;;;0.88;;
36839;SDS011;24406;51.640;9.566;2024-02-23T00:54:20;1.23;;;0.70;;
36839;SDS011;24406;51.640;9.566;2024-02-23T00:59:22;1.00;;;0.55;;
36839;SDS011;24406;51.640;9.566;2024-02-23T01:04:27;0.60;;;0.60;;
36839;SDS011;24406;51.640;9.566;2024-02-23T01:09:28;0.60;;;0.50;;
36839;SDS011;24406;51.640;9.566;2024-02-23T01:14:30;1.80;;;0.90;;
36839;SDS011;24406;51.640;9.566;2024-02-23T01:19:36;1.15;;;0.75;;
36839;SDS011;24406;51.640;9.566;2024-02-23T01:24:38;1.92;;;0.68;;
36839;SDS011;24406;51.640;9.566;2024-02-23T01:29:40;0.52;;;0.52;;
36839;SDS011;24406;51.640;9.566;2024-02-23T01:34:43;2.70;;;0.70;;
36839;SDS011;24406;51.640;9.566;2024-02-23T01:39:44;1.20;;;0.70;;
36839;SDS011;24406;51.640;9.566;2024-02-23T01:44:46;0.68;;;0.68;;
36839;SDS011;24406;51.640;9.566;2024-02-23T01:49:51;0.60;;;0.60;;
36839;SDS011;24406;51.640;9.566;2024-02-23T01:54:52;0.90;;;0.57;;
36839;SDS011;24406;51.640;9.566;2024-02-23T01:59:55;0.75;;;0.60;;
36839;SDS011;24406;51.640;9.566;2024-02-23T02:04:59;1.60;;;0.50;;
36839;SDS011;24406;51.640;9.566;2024-02-23T02:10:01;0.60;;;0.60;;
36839;SDS011;24406;51.640;9.566;2024-02-23T02:15:05;0.82;;;0.60;;
36839;SDS011;24406;51.640;9.566;2024-02-23T02:20:11;0.70;;;0.70;;
36839;SDS011;24406;51.640;9.566;2024-02-23T02:25:14;0.63;;;0.60;;
36839;SDS011;24406;51.640;9.566;2024-02-23T02:30:16;0.85;;;0.70;;
36839;SDS011;24406;51.640;9.566;2024-02-23T02:35:19;0.93;;;0.60;;
36839;SDS011;24406;51.640;9.566;2024-02-23T02:40:21;0.68;;;0.63;;
36839;SDS011;24406;51.640;9.566;2024-02-23T02:45:23;0.70;;;0.70;;
36839;SDS011;24406;51.640;9.566;2024-02-23T02:50:26;0.82;;;0.60;;
36839;SDS011;24406;51.640;9.566;2024-02-23T02:55:28;0.85;;;0.85;;
36839;SDS011;24406;51.640;9.566;2024-02-23T03:00:30;0.50;;;0.50;;
36839;SDS011;24406;51.640;9.566;2024-02-23T03:05:33;0.63;;;0.63;;
36839;SDS011;24406;51.640;9.566;2024-02-23T03:10:35;0.60;;;0.60;;
36839;SDS011;24406;51.640;9.566;2024-02-23T03:15:37;3.20;;;0.80;;
36839;SDS011;24406;51.640;9.566;2024-02-23T03:20:39;2.30;;;0.80;;
36839;SDS011;24406;51.640;9.566;2024-02-23T03:25:42;0.80;;;0.80;;
36839;SDS011;24406;51.640;9.566;2024-02-23T03:30:43;1.02;;;0.90;;
36839;SDS011;24406;51.640;9.566;2024-02-23T03:35:46;0.98;;;0.90;;
36839;SDS011;24406;51.640;9.566;2024-02-23T03:40:48;1.25;;;0.90;;
36839;SDS011;24406;51.640;9.566;2024-02-23T03:45:49;1.63;;;1.00;;
36839;SDS011;24406;51.640;9.566;2024-02-23T03:50:52;1.45;;;0.90;;
36839;SDS011;24406;51.640;9.566;2024-02-23T03:55:54;1.00;;;1.00;;
36839;SDS011;24406;51.640;9.566;2024-02-23T04:00:56;2.60;;;0.98;;
36839;SDS011;24406;51.640;9.566;2024-02-23T04:05:59;2.25;;;1.15;;
36839;SDS011;24406;51.640;9.566;2024-02-23T04:11:01;1.27;;;0.80;;
36839;SDS011;24406;51.640;9.566;2024-02-23T04:16:03;1.13;;;0.90;;
36839;SDS011;24406;51.640;9.566;2024-02-23T04:21:06;1.00;;;0.68;;
36839;SDS011;24406;51.640;9.566;2024-02-23T04:26:08;1.52;;;0.90;;
36839;SDS011;24406;51.640;9.566;2024-02-23T04:31:10;0.85;;;0.85;;
36839;SDS011;24406;51.640;9.566;2024-02-23T04:36:14;1.05;;;1.05;;
36839;SDS011;24406;51.640;9.566;2024-02-23T04:41:19;0.85;;;0.80;;
36839;SDS011;24406;51.640;9.566;2024-02-23T04:46:21;2.78;;;0.73;;
36839;SDS011;24406;51.640;9.566;2024-02-23T04:51:24;0.73;;;0.73;;
36839;SDS011;24406;51.640;9.566;2024-02-23T04:56:25;1.27;;;0.73;;
36839;SDS011;24406;51.640;9.566;2024-02-23T05:01:27;1.42;;;0.93;;
36839;SDS011;24406;51.640;9.566;2024-02-23T05:06:30;1.38;;;1.00;;
36839;SDS011;24406;51.640;9.566;2024-02-23T05:11:32;8.90;;;1.10;;
36839;SDS011;24406;51.640;9.566;2024-02-23T05:16:33;4.18;;;1.00;;
36839;SDS011;24406;51.640;9.566;2024-02-23T05:21:36;2.75;;;0.90;;
36839;SDS011;24406;51.640;9.566;2024-02-23T05:26:38;1.23;;;0.80;;
36839;SDS011;24406;51.640;9.566;2024-02-23T05:31:43;2.97;;;1.30;;
36839;SDS011;24406;51.640;9.566;2024-02-23T05:36:47;1.80;;;0.75;;
36839;SDS011;24406;51.640;9.566;2024-02-23T05:41:51;2.30;;;1.10;;
36839;SDS011;24406;51.640;9.566;2024-02-23T05:46:52;1.02;;;0.80;;
36839;SDS011;24406;51.640;9.566;2024-02-23T05:51:55;0.95;;;0.70;;
36839;SDS011;24406;51.640;9.566;2024-02-23T05:56:57;2.40;;;1.08;;
36839;SDS011;24406;51.640;9.566;2024-02-23T06:01:59;1.98;;;1.08;;
36839;SDS011;24406;51.640;9.566;2024-02-23T06:07:03;3.13;;;0.90;;
36839;SDS011;24406;51.640;9.566;2024-02-23T06:12:05;1.25;;;0.75;;
36839;SDS011;24406;51.640;9.566;2024-02-23T06:17:07;1.52;;;0.90;;
36839;SDS011;24406;51.640;9.566;2024-02-23T06:22:10;3.38;;;0.80;;
36839;SDS011;24406;51.640;9.566;2024-02-23T06:27:12;3.00;;;0.80;;
36839;SDS011;24406;51.640;9.566;2024-02-23T06:32:14;4.25;;;0.85;;
36839;SDS011;24406;51.640;9.566;2024-02-23T06:37:17;2.35;;;0.80;;
36839;SDS011;24406;51.640;9.566;2024-02-23T06:42:21;2.22;;;0.95;;
36839;SDS011;24406;51.640;9.566;2024-02-23T06:47:22;2.28;;;1.00;;
36839;SDS011;24406;51.640;9.566;2024-02-23T06:52:26;2.50;;;1.08;;
36839;SDS011;24406;51.640;9.566;2024-02-23T06:57:28;2.80;;;0.90;;
36839;SDS011;24406;51.640;9.566;2024-02-23T07:02:31;1.63;;;1.10;;
36839;SDS011;24406;51.640;9.566;2024-02-23T07:07:37;3.30;;;1.00;;
36839;SDS011;24406;51.640;9.566;2024-02-23T07:12:40;2.92;;;1.10;;
36839;SDS011;24406;51.640;9.566;2024-02-23T07:17:46;3.20;;;1.00;;
36839;SDS011;24406;51.640;9.566;2024-02-23T07:22:50;4.00;;;1.40;;
36839;SDS011;24406;51.640;9.566;2024-02-23T07:27:54;4.78;;;1.85;;
36839;SDS011;24406;51.640;9.566;2024-02-23T07:32:59;5.80;;;1.20;;
36839;SDS011;24406;51.640;9.566;2024-02-23T07:38:02;2.58;;;1.20;;
36839;SDS011;24406;51.640;9.566;2024-02-23T07:43:04;1.98;;;1.27;;
36839;SDS011;24406;51.640;9.566;2024-02-23T07:48:07;3.17;;;0.95;;
36839;SDS011;24406;51.640;9.566;2024-02-23T07:53:10;2.30;;;1.02;;
36839;SDS011;24406;51.640;9.566;2024-02-23T07:58:18;2.50;;;1.02;;
36839;SDS011;24406;51.640;9.566;2024-02-23T08:03:21;3.00;;;1.15;;
36839;SDS011;24406;51.640;9.566;2024-02-23T08:08:24;2.58;;;0.90;;
36839;SDS011;24406;51.640;9.566;2024-02-23T08:13:28;1.88;;;0.95;;
36839;SDS011;24406;51.640;9.566;2024-02-23T08:18:30;0.85;;;0.80;;
36839;SDS011;24406;51.640;9.566;2024-02-23T08:23:33;1.95;;;1.02;;
36839;SDS011;24406;51.640;9.566;2024-02-23T08:28:35;3.88;;;1.20;;
36839;SDS011;24406;51.640;9.566;2024-02-23T08:33:41;2.10;;;1.10;;
36839;SDS011;24406;51.640;9.566;2024-02-23T08:38:44;6.07;;;1.50;;
36839;SDS011;24406;51.640;9.566;2024-02-23T08:43:46;3.17;;;1.30;;
36839;SDS011;24406;51.640;9.566;2024-02-23T08:48:49;5.65;;;1.40;;
36839;SDS011;24406;51.640;9.566;2024-02-23T08:53:52;4.10;;;2.08;;
36839;SDS011;24406;51.640;9.566;2024-02-23T08:58:58;3.45;;;1.17;;
36839;SDS011;24406;51.640;9.566;2024-02-23T09:03:59;6.60;;;1.88;;
36839;SDS011;24406;51.640;9.566;2024-02-23T09:09:05;4.00;;;2.22;;
36839;SDS011;24406;51.640;9.566;2024-02-23T09:14:08;4.30;;;1.83;;
36839;SDS011;24406;51.640;9.566;2024-02-23T09:19:13;3.33;;;1.20;;
36839;SDS011;24406;51.640;9.566;2024-02-23T09:24:16;2.92;;;1.42;;
36839;SDS011;24406;51.640;9.566;2024-02-23T09:29:18;3.20;;;1.15;;
36839;SDS011;24406;51.640;9.566;2024-02-23T09:34:20;4.97;;;1.40;;
36839;SDS011;24406;51.640;9.566;2024-02-23T09:39:23;2.40;;;1.20;;
36839;SDS011;24406;51.640;9.566;2024-02-23T09:44:39;5.23;;;1.10;;
36839;SDS011;24406;51.640;9.566;2024-02-23T09:49:43;1.55;;;1.13;;
36839;SDS011;24406;51.640;9.566;2024-02-23T09:54:53;3.35;;;1.30;;
36839;SDS011;24406;51.640;9.566;2024-02-23T09:59:58;3.88;;;1.48;;
36839;SDS011;24406;51.640;9.566;2024-02-23T10:05:12;3.33;;;1.27;;
36839;SDS011;24406;51.640;9.566;2024-02-23T10:10:22;3.28;;;1.35;;
36839;SDS011;24406;51.640;9.566;2024-02-23T10:15:28;3.85;;;1.23;;
36839;SDS011;24406;51.640;9.566;2024-02-23T10:20:31;4.43;;;1.83;;
36839;SDS011;24406;51.640;9.566;2024-02-23T10:25:34;2.85;;;1.48;;
36839;SDS011;24406;51.640;9.566;2024-02-23T10:30:36;1.83;;;1.10;;
36839;SDS011;24406;51.640;9.566;2024-02-23T10:35:39;3.63;;;1.00;;
36839;SDS011;24406;51.640;9.566;2024-02-23T10:40:43;3.67;;;1.20;;
36839;SDS011;24406;51.640;9.566;2024-02-23T10:45:46;5.47;;;1.20;;
36839;SDS011;24406;51.640;9.566;2024-02-23T10:50:48;4.15;;;1.00;;
36839;SDS011;24406;51.640;9.566;2024-02-23T10:55:53;4.15;;;1.35;;
36839;SDS011;24406;51.640;9.566;2024-02-23T11:00:58;5.20;;;1.40;;
36839;SDS011;24406;51.640;9.566;2024-02-23T11:06:01;4.43;;;1.48;;
36839;SDS011;24406;51.640;9.566;2024-02-23T11:11:09;3.47;;;1.50;;
36839;SDS011;24406;51.640;9.566;2024-02-23T11:21:13;3.20;;;1.17;;
36839;SDS011;24406;51.640;9.566;2024-02-23T11:26:25;2.90;;;1.42;;
36839;SDS011;24406;51.640;9.566;2024-02-23T11:31:29;4.60;;;1.40;;
36839;SDS011;24406;51.640;9.566;2024-02-23T11:36:32;1.92;;;1.33;;
36839;SDS011;24406;51.640;9.566;2024-02-23T11:41:38;2.47;;;1.35;;
36839;SDS011;24406;51.640;9.566;2024-02-23T11:46:40;7.68;;;1.60;;
36839;SDS011;24406;51.640;9.566;2024-02-23T11:51:42;2.75;;;1.65;;
36839;SDS011;24406;51.640;9.566;2024-02-23T11:56:46;5.20;;;2.30;;
36839;SDS011;24406;51.640;9.566;2024-02-23T12:01:51;2.42;;;1.10;;
36839;SDS011;24406;51.640;9.566;2024-02-23T12:06:53;3.17;;;1.35;;
36839;SDS011;24406;51.640;9.566;2024-02-23T12:11:56;3.45;;;1.48;;
36839;SDS011;24406;51.640;9.566;2024-02-23T12:16:57;2.40;;;1.10;;
36839;SDS011;24406;51.640;9.566;2024-02-23T12:22:02;3.03;;;1.42;;
36839;SDS011;24406;51.640;9.566;2024-02-23T12:27:06;4.03;;;1.83;;
36839;SDS011;24406;51.640;9.566;2024-02-23T12:32:08;2.42;;;1.33;;
36839;SDS011;24406;51.640;9.566;2024-02-23T12:37:14;3.17;;;0.88;;
36839;SDS011;24406;51.640;9.566;2024-02-23T12:42:18;2.35;;;1.35;;
36839;SDS011;24406;51.640;9.566;2024-02-23T12:47:22;4.10;;;1.73;;
36839;SDS011;24406;51.640;9.566;2024-02-23T12:52:24;4.25;;;1.38;;
36839;SDS011;24406;51.640;9.566;2024-02-23T12:57:28;3.95;;;1.40;;
36839;SDS011;24406;51.640;9.566;2024-02-23T13:02:30;4.53;;;1.58;;
36839;SDS011;24406;51.640;9.566;2024-02-23T13:07:32;4.80;;;1.85;;
36839;SDS011;24406;51.640;9.566;2024-02-23T13:12:35;11.27;;;1.33;;
36839;SDS011;24406;51.640;9.566;2024-02-23T13:17:37;2.38;;;1.52;;
36839;SDS011;24406;51.640;9.566;2024-02-23T13:22:40;6.32;;;2.72;;
36839;SDS011;24406;51.640;9.566;2024-02-23T13:27:43;3.25;;;1.45;;
36839;SDS011;24406;51.640;9.566;2024-02-23T13:32:48;2.53;;;1.33;;
36839;SDS011;24406;51.640;9.566;2024-02-23T13:37:51;4.82;;;1.45;;
36839;SDS011;24406;51.640;9.566;2024-02-23T13:42:54;4.38;;;1.30;;
36839;SDS011;24406;51.640;9.566;2024-02-23T13:47:57;5.05;;;1.65;;
36839;SDS011;24406;51.640;9.566;2024-02-23T13:52:59;4.30;;;1.77;;
36839;SDS011;24406;51.640;9.566;2024-02-23T13:58:02;7.97;;;2.10;;
36839;SDS011;24406;51.640;9.566;2024-02-23T14:03:04;6.15;;;2.90;;
36839;SDS011;24406;51.640;9.566;2024-02-23T14:08:06;4.55;;;1.55;;
36839;SDS011;24406;51.640;9.566;2024-02-23T14:13:10;5.95;;;2.10;;
36839;SDS011;24406;51.640;9.566;2024-02-23T14:18:12;2.83;;;1.40;;
36839;SDS011;24406;51.640;9.566;2024-02-23T14:23:14;4.70;;;2.15;;
36839;SDS011;24406;51.640;9.566;2024-02-23T14:28:17;5.03;;;1.55;;
36839;SDS011;24406;51.640;9.566;2024-02-23T14:33:19;5.90;;;2.17;;
36839;SDS011;24406;51.640;9.566;2024-02-23T14:38:21;4.22;;;2.15;;
36839;SDS011;24406;51.640;9.566;2024-02-23T14:43:24;3.58;;;1.63;;
36839;SDS011;24406;51.640;9.566;2024-02-23T14:48:26;4.50;;;1.52;;
36839;SDS011;24406;51.640;9.566;2024-02-23T14:53:28;4.82;;;1.88;;
36839;SDS011;24406;51.640;9.566;2024-02-23T14:58:31;4.50;;;1.90;;
36839;SDS011;24406;51.640;9.566;2024-02-23T15:03:34;6.25;;;1.65;;
36839;SDS011;24406;51.640;9.566;2024-02-23T15:08:35;2.45;;;1.55;;
36839;SDS011;24406;51.640;9.566;2024-02-23T15:13:42;3.25;;;1.20;;
36839;SDS011;24406;51.640;9.566;2024-02-23T15:18:44;3.97;;;2.13;;
36839;SDS011;24406;51.640;9.566;2024-02-23T15:23:51;3.58;;;1.08;;
36839;SDS011;24406;51.640;9.566;2024-02-23T15:28:54;3.00;;;1.60;;
36839;SDS011;24406;51.640;9.566;2024-02-23T15:33:56;5.32;;;1.27;;
36839;SDS011;24406;51.640;9.566;2024-02-23T15:39:00;2.88;;;1.20;;
36839;SDS011;24406;51.640;9.566;2024-02-23T15:44:07;3.53;;;1.30;;
36839;SDS011;24406;51.640;9.566;2024-02-23T15:49:09;2.22;;;1.30;;
36839;SDS011;24406;51.640;9.566;2024-02-23T15:54:11;3.38;;;1.40;;
36839;SDS011;24406;51.640;9.566;2024-02-23T15:59:15;2.03;;;1.10;;
36839;SDS011;24406;51.640;9.566;2024-02-23T16:04:17;2.42;;;1.42;;
36839;SDS011;24406;51.640;9.566;2024-02-23T16:09:19;3.22;;;1.27;;
36839;SDS011;24406;51.640;9.566;2024-02-23T16:14:22;4.38;;;1.33;;
36839;SDS011;24406;51.640;9.566;2024-02-23T16:19:24;2.88;;;1.10;;
36839;SDS011;24406;51.640;9.566;2024-02-23T16:24:28;1.77;;;1.60;;
36839;SDS011;24406;51.640;9.566;2024-02-23T16:29:33;3.05;;;1.23;;
36839;SDS011;24406;51.640;9.566;2024-02-23T16:34:36;3.53;;;1.42;;
36839;SDS011;24406;51.640;9.566;2024-02-23T16:39:39;3.45;;;1.45;;
36839;SDS011;24406;51.640;9.566;2024-02-23T16:44:42;4.10;;;1.25;;
36839;SDS011;24406;51.640;9.566;2024-02-23T16:49:44;3.10;;;1.70;;
36839;SDS011;24406;51.640;9.566;2024-02-23T16:54:46;3.03;;;1.10;;
36839;SDS011;24406;51.640;9.566;2024-02-23T16:59:48;1.30;;;1.20;;
36839;SDS011;24406;51.640;9.566;2024-02-23T17:04:50;5.32;;;1.40;;
36839;SDS011;24406;51.640;9.566;2024-02-23T17:09:52;2.40;;;1.40;;
36839;SDS011;24406;51.640;9.566;2024-02-23T17:14:55;2.67;;;1.00;;
36839;SDS011;24406;51.640;9.566;2024-02-23T17:19:57;7.38;;;1.77;;
36839;SDS011;24406;51.640;9.566;2024-02-23T17:24:59;2.58;;;1.20;;
36839;SDS011;24406;51.640;9.566;2024-02-23T17:30:04;3.47;;;0.95;;
36839;SDS011;24406;51.640;9.566;2024-02-23T17:35:08;2.08;;;1.35;;
36839;SDS011;24406;51.640;9.566;2024-02-23T17:40:11;3.33;;;1.52;;
36839;SDS011;24406;51.640;9.566;2024-02-23T17:45:14;3.15;;;1.38;;
36839;SDS011;24406;51.640;9.566;2024-02-23T17:50:16;4.38;;;1.48;;
36839;SDS011;24406;51.640;9.566;2024-02-23T17:55:20;2.42;;;1.00;;
36839;SDS011;24406;51.640;9.566;2024-02-23T18:00:23;6.80;;;1.58;;
36839;SDS011;24406;51.640;9.566;2024-02-23T18:05:25;3.45;;;1.20;;
36839;SDS011;24406;51.640;9.566;2024-02-23T18:10:28;3.40;;;1.10;;
36839;SDS011;24406;51.640;9.566;2024-02-23T18:15:34;6.53;;;1.58;;
36839;SDS011;24406;51.640;9.566;2024-02-23T18:20:36;5.30;;;1.73;;
36839;SDS011;24406;51.640;9.566;2024-02-23T18:25:38;3.70;;;1.42;;
36839;SDS011;24406;51.640;9.566;2024-02-23T18:30:41;3.35;;;1.40;;
36839;SDS011;24406;51.640;9.566;2024-02-23T18:35:43;2.65;;;1.45;;
36839;SDS011;24406;51.640;9.566;2024-02-23T18:40:46;3.97;;;1.40;;
36839;SDS011;24406;51.640;9.566;2024-02-23T18:45:49;2.97;;;1.38;;
36839;SDS011;24406;51.640;9.566;2024-02-23T18:50:59;3.40;;;1.02;;
36839;SDS011;24406;51.640;9.566;2024-02-23T18:56:01;4.22;;;1.98;;
36839;SDS011;24406;51.640;9.566;2024-02-23T19:01:06;5.32;;;1.55;;
36839;SDS011;24406;51.640;9.566;2024-02-23T19:06:11;3.90;;;3.60;;
36839;SDS011;24406;51.640;9.566;2024-02-23T19:11:13;2.40;;;1.50;;
36839;SDS011;24406;51.640;9.566;2024-02-23T19:16:16;1.63;;;1.13;;
36839;SDS011;24406;51.640;9.566;2024-02-23T19:21:19;3.92;;;1.40;;
36839;SDS011;24406;51.640;9.566;2024-02-23T19:26:22;5.60;;;1.63;;
36839;SDS011;24406;51.640;9.566;2024-02-23T19:31:26;2.45;;;1.60;;
36839;SDS011;24406;51.640;9.566;2024-02-23T19:36:27;1.98;;;1.27;;
36839;SDS011;24406;51.640;9.566;2024-02-23T19:41:29;2.78;;;1.33;;
36839;SDS011;24406;51.640;9.566;2024-02-23T19:46:33;2.40;;;1.40;;
36839;SDS011;24406;51.640;9.566;2024-02-23T19:51:35;2.10;;;1.20;;
36839;SDS011;24406;51.640;9.566;2024-02-23T19:56:37;5.47;;;1.30;;
36839;SDS011;24406;51.640;9.566;2024-02-23T20:01:41;3.47;;;1.70;;
36839;SDS011;24406;51.640;9.566;2024-02-23T20:06:45;4.93;;;2.40;;
36839;SDS011;24406;51.640;9.566;2024-02-23T20:11:49;2.30;;;1.50;;
36839;SDS011;24406;51.640;9.566;2024-02-23T20:16:52;3.00;;;1.25;;
36839;SDS011;24406;51.640;9.566;2024-02-23T20:21:54;4.82;;;2.47;;
36839;SDS011;24406;51.640;9.566;2024-02-23T20:26:57;4.13;;;2.65;;
36839;SDS011;24406;51.640;9.566;2024-02-23T20:32:01;6.45;;;3.85;;
36839;SDS011;24406;51.640;9.566;2024-02-23T20:37:05;10.27;;;4.72;;
36839;SDS011;24406;51.640;9.566;2024-02-23T20:42:08;11.40;;;3.55;;
36839;SDS011;24406;51.640;9.566;2024-02-23T20:47:12;7.03;;;1.67;;
36839;SDS011;24406;51.640;9.566;2024-02-23T20:52:13;4.88;;;1.55;;
36839;SDS011;24406;51.640;9.566;2024-02-23T20:57:20;2.13;;;1.67;;
36839;SDS011;24406;51.640;9.566;2024-02-23T21:02:23;6.63;;;1.70;;
36839;SDS011;24406;51.640;9.566;2024-02-23T21:07:25;6.15;;;1.45;;
36839;SDS011;24406;51.640;9.566;2024-02-23T21:12:28;5.18;;;1.55;;
36839;SDS011;24406;51.640;9.566;2024-02-23T21:17:31;4.65;;;2.10;;
36839;SDS011;24406;51.640;9.566;2024-02-23T21:22:33;14.20;;;7.82;;
36839;SDS011;24406;51.640;9.566;2024-02-23T21:27:34;14.82;;;8.65;;
36839;SDS011;24406;51.640;9.566;2024-02-23T21:32:37;4.40;;;2.85;;
36839;SDS011;24406;51.640;9.566;2024-02-23T21:37:40;5.57;;;2.63;;
36839;SDS011;24406;51.640;9.566;2024-02-23T21:42:42;3.08;;;2.63;;
36839;SDS011;24406;51.640;9.566;2024-02-23T21:47:46;6.93;;;4.13;;
36839;SDS011;24406;51.640;9.566;2024-02-23T21:52:49;7.00;;;4.50;;
36839;SDS011;24406;51.640;9.566;2024-02-23T21:57:50;5.13;;;2.60;;
36839;SDS011;24406;51.640;9.566;2024-02-23T22:02:53;3.88;;;2.65;;
36839;SDS011;24406;51.640;9.566;2024-02-23T22:07:57;5.80;;;4.75;;
36839;SDS011;24406;51.640;9.566;2024-02-23T22:12:59;7.93;;;4.50;;
36839;SDS011;24406;51.640;9.566;2024-02-23T22:18:06;8.43;;;5.15;;
36839;SDS011;24406;51.640;9.566;2024-02-23T22:23:18;8.68;;;3.55;;
36839;SDS011;24406;51.640;9.566;2024-02-23T22:28:52;6.43;;;3.72;;
36839;SDS011;24406;51.640;9.566;2024-02-23T22:34:05;8.38;;;3.40;;
36839;SDS011;24406;51.640;9.566;2024-02-23T22:39:27;4.13;;;2.70;;
36839;SDS011;24406;51.640;9.566;2024-02-23T22:44:47;2.55;;;1.67;;
36839;SDS011;24406;51.640;9.566;2024-02-23T22:50:08;6.30;;;4.50;;
36839;SDS011;24406;51.640;9.566;2024-02-23T22:55:28;5.00;;;3.83;;
36839;SDS011;24406;51.640;9.566;2024-02-23T23:01:20;4.93;;;2.72;;
36839;SDS011;24406;51.640;9.566;2024-02-23T23:06:32;7.50;;;3.58;;
36839;SDS011;24406;51.640;9.566;2024-02-23T23:11:45;2.70;;;2.30;;
36839;SDS011;24406;51.640;9.566;2024-02-23T23:17:34;4.15;;;2.55;;
36839;SDS011;24406;51.640;9.566;2024-02-23T23:22:59;4.07;;;2.85;;
36839;SDS011;24406;51.640;9.566;2024-02-23T23:28:12;4.15;;;2.58;;
36839;SDS011;24406;51.640;9.566;2024-02-23T23:33:36;3.78;;;1.88;;
36839;SDS011;24406;51.640;9.566;2024-02-23T23:44:30;4.93;;;2.40;;
36839;SDS011;24406;51.640;9.566;2024-02-23T23:49:45;4.75;;;2.58;;
36839;SDS011;24406;51.640;9.566;2024-02-23T23:54:52;4.05;;;3.00;;
